Time;durP1;ratioP1;P1;durP2;ratioP2;P2;SDS_P1;SDS_P2;PMS_P1;PMS_P2;Temp;Humidity;BMP_temperature;BMP_pressure;BME280_temperature;BME280_humidity;BME280_pressure;Samples;Min_cycle;Max_cycle;Signal;HPM_P1;HPM_P2
2022/08/10 00:27:08;;;;;;;6.20;3.25;;;;;;;17.14;63.85;96992.84;5057402;28;20052;-77
2022/08/10 00:32:10;;;;;;;5.47;2.78;;;;;;;16.93;64.07;96988.28;5763521;23;20041;-76
2022/08/10 00:34:36;;;;;;;3.78;2.90;;;;;;;16.88;64.50;96990.44;5041525;28;20044;-87
2022/08/10 00:58:13;;;;;;;5.63;2.72;;;;;;;16.74;65.17;96985.28;5939894;23;20040;-88
2022/08/10 01:03:16;;;;;;;8.50;4.72;;;;;;;16.48;66.38;96987.50;5296908;22;20021;-88
2022/08/10 01:24:28;;;;;;;3.95;2.67;;;;;;;16.26;68.01;96984.00;5105637;23;20056;-90
2022/08/10 03:14:23;;;;;;;8.30;5.05;;;;;;;16.22;63.85;96958.34;5568917;22;20053;-89
2022/08/10 03:22:02;;;;;;;11.48;5.50;;;;;;;16.23;62.62;96959.94;5988172;22;20296;-88
2022/08/10 04:08:42;;;;;;;7.63;3.03;;;;;;;16.14;61.70;96960.06;5886248;22;20147;-86
2022/08/10 04:23:25;;;;;;;11.75;6.43;;;;;;;16.03;61.14;96961.63;5452962;23;20052;-88
2022/08/10 04:25:52;;;;;;;;;;;;;;;16.09;60.88;96964.97;5057981;28;20029;-77
2022/08/10 04:31:44;;;;;;;4.82;2.55;;;;;;;16.08;60.66;96971.59;5093402;23;20040;-88
2022/08/10 04:42:25;;;;;;;5.70;2.92;;;;;;;16.07;60.93;96964.47;5241031;23;20037;-83
2022/08/10 04:44:52;;;;;;;4.50;2.67;;;;;;;16.13;61.60;96963.94;5053795;28;20052;-83
2022/08/10 04:47:18;;;;;;;6.90;2.92;;;;;;;16.17;62.54;96966.81;5049857;28;20045;-84
2022/08/10 04:49:45;;;;;;;6.93;3.05;;;;;;;16.24;61.65;96977.25;5044869;28;20058;-79
2022/08/10 04:52:11;;;;;;;6.68;3.50;;;;;;;16.16;61.52;96976.19;5013637;28;20067;-80
2022/08/10 04:54:37;;;;;;;6.82;3.20;;;;;;;16.23;61.46;96981.94;5031144;28;20802;-80
2022/08/10 04:57:04;;;;;;;9.18;3.10;;;;;;;16.20;61.90;96977.13;5032402;28;20049;-81
2022/08/10 04:59:33;;;;;;;6.90;2.97;;;;;;;16.15;60.95;96983.63;5034082;28;20065;-80
2022/08/10 05:01:59;;;;;;;8.43;3.72;;;;;;;16.20;61.89;96985.38;5032548;28;20069;-80
2022/08/10 05:04:26;;;;;;;5.15;3.10;;;;;;;16.28;61.10;96978.97;5031441;28;20497;-81
2022/08/10 05:06:52;;;;;;;5.15;3.10;;;;;;;16.42;61.59;96982.22;5031140;28;20057;-79
2022/08/10 05:09:19;;;;;;;5.93;3.45;;;;;;;16.47;61.98;96978.44;5028110;28;20041;-79
2022/08/10 05:11:45;;;;;;;5.38;3.30;;;;;;;16.54;61.16;96977.88;5028380;28;20051;-79
2022/08/10 05:14:11;;;;;;;4.68;3.22;;;;;;;16.56;61.29;96981.09;5028857;28;20049;-78
2022/08/10 05:16:39;;;;;;;7.97;3.75;;;;;;;16.59;62.77;96983.97;5028716;28;20061;-78
2022/08/10 05:19:13;;;;;;;4.57;2.88;;;;;;;16.62;61.96;96983.28;5043578;28;20539;-81
2022/08/10 05:21:40;;;;;;;5.25;2.92;;;;;;;16.70;61.47;96978.81;5043801;28;20056;-81
2022/08/10 05:24:07;;;;;;;5.20;2.58;;;;;;;16.80;61.44;96989.41;5043166;28;20124;-82
2022/08/10 05:26:34;;;;;;;4.85;2.40;;;;;;;16.87;61.76;96995.16;5040597;28;20068;-82
2022/08/10 05:29:00;;;;;;;6.15;3.28;;;;;;;16.90;62.39;96988.16;5041949;28;20085;-84
2022/08/10 05:31:27;;;;;;;6.53;3.10;;;;;;;16.90;62.65;96988.94;5040711;28;20049;-83
2022/08/10 05:33:55;;;;;;;9.68;3.25;;;;;;;16.97;62.21;96993.09;5040344;28;20057;-81
2022/08/10 05:36:22;;;;;;;6.72;3.40;;;;;;;16.86;60.80;96995.47;5040095;28;20056;-81
2022/08/10 05:38:49;;;;;;;6.28;3.15;;;;;;;17.02;60.65;96995.59;5043452;28;20041;-82
2022/08/10 05:41:17;;;;;;;4.93;2.88;;;;;;;17.14;61.64;96992.84;5044377;28;20049;-80
2022/08/10 05:43:44;;;;;;;3.65;2.63;;;;;;;17.18;61.44;96994.56;5040559;28;20076;-84
2022/08/10 05:46:11;;;;;;;4.53;2.60;;;;;;;17.23;61.64;96993.53;5040533;28;20056;-82
2022/08/10 05:48:39;;;;;;;3.90;2.80;;;;;;;17.15;60.44;96991.69;5041517;28;20492;-82
2022/08/10 05:51:08;;;;;;;6.85;2.95;;;;;;;17.24;59.81;96992.41;5039874;28;20060;-81
2022/08/10 05:53:37;;;;;;;6.32;2.75;;;;;;;17.25;59.65;96999.50;5041369;28;20480;-83
2022/08/10 05:56:07;;;;;;;5.10;3.08;;;;;;;17.31;59.73;96995.34;5041304;28;20588;-81
2022/08/10 05:58:34;;;;;;;4.78;2.55;;;;;;;17.35;59.28;96988.00;5040449;28;20057;-81
2022/08/10 06:01:03;;;;;;;5.50;2.88;;;;;;;17.41;59.17;96992.13;5036985;28;20117;-82
2022/08/10 06:03:33;;;;;;;8.23;3.00;;;;;;;17.46;58.80;96983.63;5038305;28;20037;-82
2022/08/10 06:06:02;;;;;;;4.45;2.47;;;;;;;17.44;58.91;96991.44;5018257;28;20500;-81
2022/08/10 06:08:33;;;;;;;5.38;2.83;;;;;;;17.43;58.79;96995.31;5039493;28;20045;-81
2022/08/10 06:11:02;;;;;;;4.38;2.65;;;;;;;17.43;59.24;96995.31;5041519;28;20102;-81
2022/08/10 06:16:17;;;;;;;3.72;2.47;;;;;;;17.65;58.92;96979.47;5041395;28;20052;-82
2022/08/10 06:18:44;;;;;;;31.02;16.60;;;;;;;17.72;58.86;96979.66;5065046;23;20052;-81
2022/08/10 06:21:12;;;;;;;9.23;5.25;;;;;;;17.75;58.81;96990.03;5005992;28;20046;-82
2022/08/10 06:23:41;;;;;;;6.75;2.70;;;;;;;17.73;57.74;96986.81;5003642;28;20056;-81
2022/08/10 06:26:07;;;;;;;3.80;2.63;;;;;;;17.86;57.78;96987.59;5005548;28;20097;-80
2022/08/10 06:28:39;;;;;;;10.43;4.00;;;;;;;18.02;57.97;96984.88;5005916;28;20046;-82
2022/08/10 06:31:08;;;;;;;7.25;2.85;;;;;;;18.09;57.75;96988.63;5005557;28;20060;-82
2022/08/10 06:33:38;;;;;;;8.60;2.70;;;;;;;18.13;56.97;96983.22;4999311;28;20054;-82
2022/08/10 06:36:07;;;;;;;3.53;2.35;;;;;;;18.18;57.00;96991.25;5015424;28;20077;-81
2022/08/10 06:38:37;;;;;;;4.82;2.45;;;;;;;18.25;57.09;96974.88;5002227;28;20046;-82
2022/08/10 06:41:10;;;;;;;6.05;2.45;;;;;;;18.34;57.13;96975.53;5005168;28;20054;-83
2022/08/10 06:43:40;;;;;;;8.63;2.90;;;;;;;18.34;56.66;96983.81;5004772;28;20054;-82
2022/08/10 06:46:12;;;;;;;3.40;2.13;;;;;;;18.39;56.52;96977.25;5006495;28;20050;-81
2022/08/10 06:48:49;;;;;;;4.78;2.50;;;;;;;18.63;56.40;96987.31;5009450;28;20046;-82
2022/08/10 06:51:21;;;;;;;4.63;2.42;;;;;;;18.66;55.43;96989.34;5010354;28;20061;-82
2022/08/10 06:53:50;;;;;;;5.20;2.05;;;;;;;18.70;55.46;96982.81;5009769;28;20064;-82
2022/08/10 06:56:22;;;;;;;5.55;2.35;;;;;;;18.68;54.69;96987.06;5011559;28;20041;-81
2022/08/10 06:58:53;;;;;;;4.75;2.25;;;;;;;18.81;55.22;96980.31;5011643;28;20047;-82
2022/08/10 07:01:24;;;;;;;7.32;2.00;;;;;;;18.88;54.95;96969.44;5010943;28;20054;-83
2022/08/10 07:03:58;;;;;;;4.00;2.05;;;;;;;18.99;55.25;96976.03;5011185;28;20057;-83
2022/08/10 07:06:26;;;;;;;3.95;2.00;;;;;;;19.13;55.16;96977.53;5010094;28;20046;-84
2022/08/10 07:08:54;;;;;;;6.10;2.13;;;;;;;19.11;54.81;96983.44;5008120;28;20057;-82
2022/08/10 07:11:23;;;;;;;6.50;2.67;;;;;;;19.19;54.47;96979.66;5006060;28;20046;-79
2022/08/10 07:13:51;;;;;;;5.70;2.25;;;;;;;19.29;54.26;96970.03;5003120;28;20042;-81
2022/08/10 07:16:19;;;;;;;6.65;2.22;;;;;;;19.40;54.00;96968.31;5005784;28;20041;-81
2022/08/10 07:18:55;;;;;;;4.78;2.40;;;;;;;19.55;53.49;96969.41;5006568;28;20046;-80
2022/08/10 07:21:23;;;;;;;6.22;2.10;;;;;;;19.62;53.85;96979.84;5024162;23;22943;-80
2022/08/10 07:23:52;;;;;;;4.38;2.20;;;;;;;19.74;53.07;96971.44;5007557;28;20078;-81
2022/08/10 07:26:23;;;;;;;7.43;2.33;;;;;;;19.89;52.96;96970.59;5006632;28;20485;-81
2022/08/10 07:28:52;;;;;;;3.95;2.25;;;;;;;20.00;52.35;96965.28;5007854;28;20046;-81
2022/08/10 07:31:25;;;;;;;7.40;2.13;;;;;;;20.14;52.23;96973.03;5009257;28;20054;-80
2022/08/10 07:33:55;;;;;;;3.95;2.45;;;;;;;20.27;52.58;96971.72;5011948;28;20073;-84
2022/08/10 07:36:23;;;;;;;3.17;2.10;;;;;;;20.41;51.84;96968.41;5007899;28;20046;-82
2022/08/10 07:38:54;;;;;;;4.32;2.33;;;;;;;20.54;51.00;96965.13;5007410;28;20058;-81
2022/08/10 07:41:23;;;;;;;4.90;2.15;;;;;;;20.64;50.77;96963.72;5005967;28;20054;-81
2022/08/10 07:43:54;;;;;;;8.50;2.45;;;;;;;20.70;49.96;96966.97;5003903;28;20105;-81
2022/08/10 07:46:24;;;;;;;4.72;2.10;;;;;;;20.90;50.80;96964.94;5002103;28;20050;-82
2022/08/10 07:49:02;;;;;;;6.13;2.33;;;;;;;21.16;50.68;96961.41;5001828;28;20054;-80
2022/08/10 07:51:31;;;;;;;4.43;2.35;;;;;;;21.26;48.77;96967.09;5003331;28;20054;-81
2022/08/10 07:54:01;;;;;;;4.95;1.90;;;;;;;21.57;48.24;96968.78;5003833;28;20042;-81
2022/08/10 07:56:30;;;;;;;7.63;2.30;;;;;;;22.04;46.86;96967.41;5002986;28;20558;-80
2022/08/10 07:59:04;;;;;;;4.13;2.13;;;;;;;22.55;45.26;96958.47;5005454;28;20046;-81
2022/08/10 08:01:34;;;;;;;5.90;2.17;;;;;;;22.92;44.72;96957.66;5005021;28;20042;-82
2022/08/10 08:04:01;;;;;;;7.28;2.45;;;;;;;23.18;43.31;96960.25;5012428;28;20065;-81
2022/08/10 08:06:32;;;;;;;5.13;2.33;;;;;;;23.58;42.95;96964.06;5003944;28;20050;-81
2022/08/10 08:09:02;;;;;;;6.75;2.17;;;;;;;23.57;42.19;96958.91;5003783;28;20050;-82
2022/08/10 08:11:30;;;;;;;4.43;2.00;;;;;;;23.71;42.28;96961.00;5005062;28;20050;-81
2022/08/10 08:13:59;;;;;;;5.93;2.10;;;;;;;23.96;41.97;96964.66;5005696;28;20057;-81
2022/08/10 08:16:26;;;;;;;4.53;2.20;;;;;;;24.18;41.67;96960.81;5005854;28;20054;-81
2022/08/10 08:18:55;;;;;;;5.20;2.10;;;;;;;24.39;40.83;96962.88;5004500;28;20050;-80
2022/08/10 08:21:23;;;;;;;4.78;1.90;;;;;;;24.69;41.45;96956.97;5002873;28;20073;-80
2022/08/10 08:23:53;;;;;;;5.38;1.98;;;;;;;24.88;40.02;96961.34;5004083;28;20050;-80
2022/08/10 08:26:22;;;;;;;3.05;1.52;;;;;;;24.92;39.15;96966.94;5002137;28;20269;-81
2022/08/10 08:28:50;;;;;;;5.97;2.17;;;;;;;24.97;41.66;96969.31;5000744;28;20585;-80
2022/08/10 08:31:20;;;;;;;4.50;1.85;;;;;;;25.02;39.41;96974.50;5002151;28;20053;-80
2022/08/10 08:33:47;;;;;;;3.78;1.95;;;;;;;25.06;39.45;96966.97;5003514;28;20050;-80
2022/08/10 08:36:16;;;;;;;5.05;1.95;;;;;;;24.93;38.29;96974.09;5008315;28;20092;-81
2022/08/10 08:38:44;;;;;;;10.40;1.75;;;;;;;24.84;40.36;96965.31;5013048;28;20066;-81
2022/08/10 08:41:27;;;;;;;9.80;2.00;;;;;;;24.78;38.65;96973.28;5014331;28;20119;-80
2022/08/10 08:44:05;;;;;;;3.88;1.90;;;;;;;24.73;39.31;96977.25;5007899;28;20518;-81
2022/08/10 08:47:04;;;;;;;3.67;1.40;;;;;;;24.70;38.46;96972.50;5004157;28;20108;-82
2022/08/10 08:49:53;;;;;;;6.97;2.10;;;;;;;24.57;38.45;96973.25;4995536;28;20034;-82
2022/08/10 08:52:31;;;;;;;4.53;2.00;;;;;;;24.71;38.91;96965.72;5004331;28;20061;-82
2022/08/10 08:55:09;;;;;;;9.10;2.10;;;;;;;24.70;40.74;96964.13;5003193;28;20050;-81
2022/08/10 08:57:46;;;;;;;5.85;2.20;;;;;;;24.79;39.80;96962.94;5001578;28;20465;-81
2022/08/10 09:00:18;;;;;;;6.00;2.60;;;;;;;24.70;39.70;96971.69;5000548;28;20050;-81
2022/08/10 09:03:06;;;;;;;5.40;2.40;;;;;;;24.97;39.71;96963.75;4999866;28;20046;-78
2022/08/10 09:05:44;;;;;;;3.92;1.98;;;;;;;25.06;39.30;96961.41;5000542;28;20038;-80
2022/08/10 09:08:27;;;;;;;7.80;1.92;;;;;;;25.12;38.74;96965.38;4997051;28;20461;-80
2022/08/10 09:10:59;;;;;;;6.25;1.90;;;;;;;25.09;37.95;96966.16;4998515;28;20054;-80
2022/08/10 09:13:30;;;;;;;6.43;1.90;;;;;;;25.13;37.92;96966.97;5000573;28;20057;-82
2022/08/10 09:16:07;;;;;;;4.65;2.00;;;;;;;25.11;37.86;96969.38;5000663;28;20050;-80
2022/08/10 09:18:41;;;;;;;5.10;1.67;;;;;;;25.29;40.64;96968.56;4999582;28;20046;-80
2022/08/10 09:21:17;;;;;;;5.60;1.75;;;;;;;25.24;37.59;96967.75;4999647;28;20050;-81
2022/08/10 09:23:51;;;;;;;10.10;2.08;;;;;;;25.05;37.02;96958.97;4990012;28;20057;-81
2022/08/10 09:26:20;;;;;;;5.15;1.50;;;;;;;25.27;37.12;96957.00;4987515;28;20054;-79
2022/08/10 09:28:46;;;;;;;5.30;1.70;;;;;;;25.21;36.85;96957.41;5000062;28;20050;-81
2022/08/10 09:31:18;;;;;;;3.67;1.83;;;;;;;25.26;37.09;96975.72;4999224;28;20512;-80
2022/08/10 09:33:53;;;;;;;6.45;1.80;;;;;;;25.23;36.46;96966.16;4997163;28;20057;-81
2022/08/10 09:36:28;;;;;;;9.02;1.92;;;;;;;25.21;37.82;96973.31;4998132;28;20046;-80
2022/08/10 09:39:05;;;;;;;5.28;1.90;;;;;;;25.29;40.06;96968.56;4996860;28;20054;-79
2022/08/10 09:41:41;;;;;;;6.35;1.98;;;;;;;25.21;38.14;96978.91;4997831;28;20413;-80
2022/08/10 09:44:17;;;;;;;4.90;1.60;;;;;;;25.15;37.70;96961.78;4996814;28;20043;-79
2022/08/10 09:46:55;;;;;;;5.43;1.70;;;;;;;25.22;39.92;96969.38;4998193;28;20050;-80
2022/08/10 09:49:34;;;;;;;6.43;1.60;;;;;;;24.88;39.25;96971.69;4997961;28;20050;-80
2022/08/10 09:52:09;;;;;;;5.30;1.92;;;;;;;24.47;37.37;96956.13;4998943;28;20046;-82
2022/08/10 09:54:51;;;;;;;4.20;1.52;;;;;;;24.61;38.84;96957.34;4982154;28;20046;-81
2022/08/10 09:57:24;;;;;;;3.92;1.50;;;;;;;24.65;39.07;96953.38;4994931;28;20053;-78
2022/08/10 09:59:54;;;;;;;;;;;;;;;24.88;39.61;96966.13;4998452;28;20046;-81
2022/08/10 10:02:27;;;;;;;2.72;1.42;;;;;;;25.13;38.05;96958.59;4997843;28;19933;-81
2022/08/10 10:05:07;;;;;;;5.32;1.75;;;;;;;25.35;37.32;96961.38;4997460;28;20043;-79
2022/08/10 10:07:39;;;;;;;5.40;1.85;;;;;;;25.37;37.74;96959.78;4997020;28;20054;-81
2022/08/10 10:10:11;;;;;;;6.15;1.77;;;;;;;25.51;37.70;96967.31;4997153;28;20069;-79
2022/08/10 10:12:54;;;;;;;6.57;1.75;;;;;;;25.54;37.62;96966.53;4995043;28;20078;-80
2022/08/10 10:15:31;;;;;;;4.03;1.58;;;;;;;25.41;35.37;96965.34;4996297;28;20050;-79
2022/08/10 10:18:09;;;;;;;3.50;1.65;;;;;;;25.65;39.08;96964.50;4996509;28;20053;-80
2022/08/10 10:20:41;;;;;;;3.92;1.70;;;;;;;25.76;35.66;96956.94;4999781;28;20050;-80
2022/08/10 10:23:18;;;;;;;3.38;1.52;;;;;;;25.86;35.37;96963.69;4999755;28;20043;-80
2022/08/10 10:25:51;;;;;;;4.35;1.92;;;;;;;25.84;35.62;96948.53;5002430;28;20054;-81
2022/08/10 10:28:33;;;;;;;3.05;1.55;;;;;;;25.85;37.38;96950.13;5000199;28;20050;-80
2022/08/10 10:31:08;;;;;;;3.97;2.07;;;;;;;25.74;35.09;96950.16;5001540;28;20053;-80
2022/08/10 10:33:46;;;;;;;3.20;1.50;;;;;;;25.67;35.75;96953.72;4992038;28;20126;-80
2022/08/10 10:36:18;;;;;;;3.75;1.35;;;;;;;25.69;36.03;96947.78;4998352;28;20046;-80
2022/08/10 10:38:49;;;;;;;7.80;1.90;;;;;;;25.55;35.39;96943.00;4999518;28;20054;-80
2022/08/10 10:41:26;;;;;;;6.18;2.00;;;;;;;25.62;36.25;96940.19;4990559;28;20056;-79
2022/08/10 10:44:05;;;;;;;4.05;1.88;;;;;;;25.72;36.22;96941.38;5000837;28;20514;-80
2022/08/10 10:46:44;;;;;;;3.78;1.60;;;;;;;25.84;35.43;96934.56;5000188;28;20053;-79
2022/08/10 10:49:22;;;;;;;4.35;1.60;;;;;;;25.95;36.16;96935.34;4978269;28;20042;-79
2022/08/10 10:51:57;;;;;;;5.72;1.80;;;;;;;26.08;36.26;96930.91;4998517;28;20131;-80
2022/08/10 10:54:35;;;;;;;4.57;1.80;;;;;;;26.05;34.34;96926.16;4999023;28;20053;-79
2022/08/10 10:57:08;;;;;;;5.20;1.50;;;;;;;25.95;33.78;96927.00;5000503;28;20095;-78
2022/08/10 10:59:45;;;;;;;4.82;1.70;;;;;;;26.07;34.82;96920.94;4999915;28;20498;-79
2022/08/10 11:02:26;;;;;;;8.88;2.25;;;;;;;26.01;34.16;96922.56;4998789;28;20046;-83
2022/08/10 11:05:01;;;;;;;3.88;1.55;;;;;;;26.19;33.84;96920.47;4997805;28;20046;-81
2022/08/10 11:07:35;;;;;;;3.13;1.80;;;;;;;26.18;31.89;96916.09;4996345;28;20050;-81
2022/08/10 11:10:07;;;;;;;4.40;1.50;;;;;;;26.24;32.84;96920.03;4998487;28;20060;-77
2022/08/10 11:12:42;;;;;;;2.40;1.40;;;;;;;26.38;33.41;96916.38;4996176;28;20054;-81
2022/08/10 11:15:15;;;;;;;3.78;2.00;;;;;;;26.29;32.38;96911.25;4996467;28;20431;-80
2022/08/10 11:17:48;;;;;;;2.53;1.33;;;;;;;26.32;33.17;96911.66;4997538;28;20051;-81
2022/08/10 11:20:20;;;;;;;4.53;1.85;;;;;;;26.34;34.44;96915.59;4996407;28;20058;-81
2022/08/10 11:22:57;;;;;;;2.58;1.30;;;;;;;26.39;32.05;96915.19;4998246;28;20046;-81
2022/08/10 11:25:29;;;;;;;3.75;1.75;;;;;;;26.36;33.03;96904.03;4998468;28;20042;-82
2022/08/10 11:28:00;;;;;;;3.28;1.63;;;;;;;26.41;32.74;96909.19;4998869;28;20446;-81
2022/08/10 11:30:31;;;;;;;5.55;1.48;;;;;;;26.46;32.36;96919.94;4997176;28;20053;-81
2022/08/10 11:33:16;;;;;;;4.15;1.60;;;;;;;26.39;31.52;96917.19;4994414;28;20042;-80
2022/08/10 11:35:47;;;;;;;3.78;1.50;;;;;;;26.47;31.01;96924.34;4996885;28;20043;-81
2022/08/10 11:38:25;;;;;;;5.65;1.77;;;;;;;26.57;33.09;96922.66;4995657;28;20053;-80
2022/08/10 11:40:59;;;;;;;6.35;1.50;;;;;;;26.47;31.27;96925.13;5009182;28;20038;-81
2022/08/10 11:43:28;;;;;;;4.13;1.52;;;;;;;26.45;30.39;96937.91;5011618;28;20053;-81
2022/08/10 11:46:03;;;;;;;3.28;1.65;;;;;;;26.50;32.51;96926.31;5009647;28;20073;-80
2022/08/10 11:48:37;;;;;;;3.05;1.65;;;;;;;26.31;30.32;96924.00;5002682;28;20049;-81
2022/08/10 11:51:11;;;;;;;4.43;1.40;;;;;;;26.32;29.95;96922.81;5004805;28;20054;-79
2022/08/10 11:53:48;;;;;;;5.38;1.70;;;;;;;26.40;30.73;96919.56;5004158;28;20110;-81
2022/08/10 11:56:24;;;;;;;6.28;1.63;;;;;;;26.50;31.10;96912.34;5001373;28;20046;-81
2022/08/10 12:01:36;;;;;;;3.63;1.40;;;;;;;26.43;29.87;96915.19;5001096;28;20077;-81
2022/08/10 12:04:06;;;;;;;5.50;1.50;;;;;;;26.46;30.62;96922.75;5001899;28;20498;-81
2022/08/10 12:06:35;;;;;;;4.85;1.52;;;;;;;26.53;31.65;96906.75;5001923;28;20056;-81
2022/08/10 12:09:04;;;;;;;3.10;1.35;;;;;;;26.58;30.95;96911.09;5000935;28;20046;-81
2022/08/10 12:11:35;;;;;;;3.63;1.40;;;;;;;26.49;30.64;96907.97;5002164;28;20524;-81
2022/08/10 12:14:07;;;;;;;3.22;1.60;;;;;;;26.41;30.15;96907.19;4998329;28;20088;-80
2022/08/10 12:16:38;;;;;;;3.22;1.40;;;;;;;26.43;30.53;96901.22;4995097;28;20057;-80
2022/08/10 12:19:13;;;;;;;4.00;1.50;;;;;;;26.41;29.75;96898.78;4996243;28;20046;-79
2022/08/10 12:21:42;;;;;;;6.47;2.03;;;;;;;26.52;30.93;96905.16;4997003;28;20054;-80
2022/08/10 12:24:19;;;;;;;5.68;1.95;;;;;;;26.43;30.57;96904.03;4998606;28;20055;-80
2022/08/10 12:26:56;;;;;;;5.00;1.50;;;;;;;26.51;30.85;96891.59;4996480;28;20248;-80
2022/08/10 12:29:31;;;;;;;4.45;1.70;;;;;;;26.35;30.56;96888.47;4996336;28;20510;-78
2022/08/10 12:32:01;;;;;;;5.38;1.50;;;;;;;26.53;32.42;96905.94;4988316;28;20046;-81
2022/08/10 12:34:32;;;;;;;8.30;1.75;;;;;;;26.52;29.98;96893.19;4997479;28;20034;-79
2022/08/10 12:37:06;;;;;;;7.88;1.67;;;;;;;26.55;30.36;96889.56;4995514;28;20132;-80
2022/08/10 12:39:41;;;;;;;10.10;2.13;;;;;;;26.55;29.48;96897.94;4995245;28;20051;-80
2022/08/10 12:42:15;;;;;;;6.32;1.50;;;;;;;26.59;30.06;96898.72;4993983;28;20057;-79
2022/08/10 12:44:47;;;;;;;3.28;1.65;;;;;;;26.62;28.92;96892.31;4997667;28;20051;-79
2022/08/10 12:47:27;;;;;;;4.22;1.60;;;;;;;26.62;31.42;96892.31;4994237;28;20046;-79
2022/08/10 12:50:02;;;;;;;2.10;1.45;;;;;;;26.65;30.61;96890.69;4985461;28;20050;-80
2022/08/10 12:52:32;;;;;;;6.47;1.38;;;;;;;26.57;31.81;96875.97;4995507;28;20042;-78
2022/08/10 12:55:05;;;;;;;9.45;1.65;;;;;;;26.60;30.39;96885.53;4995646;28;20054;-79
2022/08/10 12:57:35;;;;;;;3.03;1.35;;;;;;;26.55;30.05;96872.81;4995542;28;20045;-79
2022/08/10 13:00:05;;;;;;;4.50;1.40;;;;;;;26.51;28.72;96878.41;4997214;28;20110;-76
2022/08/10 13:02:34;;;;;;;7.95;1.50;;;;;;;26.66;29.65;96870.72;4995300;28;20104;-81
2022/08/10 13:05:04;;;;;;;3.47;1.40;;;;;;;26.66;29.93;96870.72;4996375;28;20053;-81
2022/08/10 13:07:32;;;;;;;8.55;2.67;;;;;;;26.66;29.84;96870.72;4996317;28;20038;-81
2022/08/10 13:10:03;;;;;;;3.63;1.40;;;;;;;26.65;28.40;96874.72;4995597;28;20061;-82
2022/08/10 13:12:32;;;;;;;2.33;1.30;;;;;;;26.73;28.12;96865.09;4995031;28;20069;-80
2022/08/10 13:15:05;;;;;;;4.97;1.40;;;;;;;26.72;28.35;96863.47;4996722;28;20050;-80
2022/08/10 13:17:35;;;;;;;4.00;1.35;;;;;;;26.66;28.67;96865.13;4996891;28;20125;-81
2022/08/10 13:20:11;;;;;;;2.35;1.50;;;;;;;26.67;28.46;96863.94;4990207;28;20050;-79
2022/08/10 13:22:40;;;;;;;2.15;1.40;;;;;;;26.73;28.09;96853.13;4995871;28;20089;-79
2022/08/10 13:25:10;;;;;;;3.95;1.80;;;;;;;26.78;29.22;96856.28;4993623;28;20057;-80
2022/08/10 13:27:40;;;;;;;3.33;1.30;;;;;;;26.65;28.23;96852.38;4997432;28;20054;-81
2022/08/10 13:30:08;;;;;;;6.10;1.95;;;;;;;26.74;30.05;96844.34;4994247;28;20508;-79
2022/08/10 13:32:37;;;;;;;3.63;1.60;;;;;;;26.76;29.32;96847.50;4994345;28;20074;-79
2022/08/10 13:35:09;;;;;;;2.63;1.63;;;;;;;26.77;29.88;96843.50;4993828;28;20058;-80
2022/08/10 13:37:37;;;;;;;3.10;1.45;;;;;;;26.64;30.37;96839.63;4994177;28;20057;-79
2022/08/10 13:40:10;;;;;;;3.58;1.67;;;;;;;26.71;29.44;96828.38;4993753;28;20145;-78
2022/08/10 13:42:40;;;;;;;2.47;1.30;;;;;;;26.77;29.86;96835.09;4995122;28;20050;-82
2022/08/10 13:45:09;;;;;;;3.42;1.30;;;;;;;26.96;30.33;96832.94;4993412;28;20046;-78
2022/08/10 13:47:37;;;;;;;6.40;1.58;;;;;;;26.77;29.39;96832.31;4996243;28;20097;-82
2022/08/10 13:50:08;;;;;;;2.80;1.50;;;;;;;26.93;27.93;96828.97;4994283;28;20510;-80
2022/08/10 13:52:36;;;;;;;5.55;1.42;;;;;;;26.81;27.93;96837.88;4994858;28;20109;-80
2022/08/10 13:55:10;;;;;;;2.80;1.58;;;;;;;26.67;28.05;96838.78;4995878;28;20046;-79
2022/08/10 13:57:40;;;;;;;4.25;1.70;;;;;;;26.69;28.00;96828.00;4993530;28;20047;-81
2022/08/10 14:00:08;;;;;;;3.60;1.40;;;;;;;26.57;29.99;96830.50;4993793;28;20050;-77
2022/08/10 14:02:40;;;;;;;2.67;1.50;;;;;;;26.58;29.07;96830.09;4993759;28;20050;-81
2022/08/10 14:05:08;;;;;;;3.25;1.50;;;;;;;26.71;29.97;96830.38;4992645;28;20054;-80
2022/08/10 14:07:39;;;;;;;3.10;1.60;;;;;;;26.78;28.45;96819.94;4994381;28;20054;-81
2022/08/10 14:10:09;;;;;;;2.38;1.23;;;;;;;26.65;27.56;96813.28;4996023;28;20506;-80
2022/08/10 14:12:38;;;;;;;3.42;1.50;;;;;;;26.69;27.62;96830.00;4995244;28;20054;-81
2022/08/10 14:15:09;;;;;;;3.85;1.73;;;;;;;26.65;27.83;96818.88;4995250;28;20057;-80
2022/08/10 14:17:38;;;;;;;2.67;1.48;;;;;;;26.75;29.54;96817.97;4994956;28;20050;-80
2022/08/10 14:20:07;;;;;;;4.00;1.40;;;;;;;26.63;27.17;96820.50;4994705;28;20414;-80
2022/08/10 14:22:34;;;;;;;5.32;1.20;;;;;;;26.61;27.61;96806.91;4975931;28;20051;-81
2022/08/10 14:25:05;;;;;;;5.30;1.30;;;;;;;26.69;28.22;96807.66;4994136;28;20081;-81
2022/08/10 14:27:33;;;;;;;2.25;1.30;;;;;;;26.67;29.53;96805.25;4994549;28;20057;-81
2022/08/10 14:30:02;;;;;;;6.43;1.60;;;;;;;26.68;27.87;96809.66;4993872;28;20502;-81
2022/08/10 14:32:32;;;;;;;2.15;1.40;;;;;;;26.69;28.38;96805.66;4993354;28;20465;-80
2022/08/10 14:35:04;;;;;;;5.18;1.73;;;;;;;26.67;27.15;96798.88;4993373;28;20050;-83
2022/08/10 14:37:34;;;;;;;2.72;1.40;;;;;;;26.72;27.56;96793.66;4993945;28;20050;-79
2022/08/10 14:40:04;;;;;;;4.72;2.13;;;;;;;26.79;28.04;96796.38;4993398;28;20049;-81
2022/08/10 14:42:36;;;;;;;5.45;1.50;;;;;;;26.82;28.94;96794.75;4985622;28;20482;-82
2022/08/10 14:45:11;;;;;;;5.45;1.52;;;;;;;26.52;26.63;96803.84;4994245;28;20125;-80
2022/08/10 14:47:41;;;;;;;5.60;1.70;;;;;;;26.52;26.92;96804.63;4993247;28;20054;-79
2022/08/10 14:50:09;;;;;;;2.65;1.38;;;;;;;26.58;28.00;96793.78;4992908;28;20050;-79
2022/08/10 14:52:39;;;;;;;5.40;1.90;;;;;;;26.59;27.51;96798.16;4992636;28;20050;-79
2022/08/10 14:55:08;;;;;;;3.20;1.50;;;;;;;26.60;26.90;96802.53;4992255;28;20081;-80
2022/08/10 14:57:42;;;;;;;5.32;1.77;;;;;;;26.69;25.74;96791.69;4992823;28;20050;-80
2022/08/10 15:00:09;;;;;;;3.28;1.27;;;;;;;26.74;25.43;96782.88;4992164;28;20077;-81
2022/08/10 15:02:39;;;;;;;3.13;1.58;;;;;;;26.83;26.63;96784.38;4992563;28;20057;-80
2022/08/10 15:05:09;;;;;;;1.80;1.15;;;;;;;26.72;26.13;96784.47;4992468;28;20050;-79
2022/08/10 15:07:37;;;;;;;2.75;1.40;;;;;;;26.67;26.20;96791.28;4996035;28;20487;-79
2022/08/10 15:10:06;;;;;;;2.70;1.42;;;;;;;26.77;27.00;96790.41;4995134;28;20058;-79
2022/08/10 15:12:34;;;;;;;4.45;1.50;;;;;;;26.71;27.80;96789.28;4996208;28;20065;-81
2022/08/10 15:15:04;;;;;;;2.80;1.67;;;;;;;26.71;28.15;96789.28;4996097;28;20053;-81
2022/08/10 15:17:34;;;;;;;3.22;1.50;;;;;;;26.73;29.91;96786.88;4997038;28;20039;-81
2022/08/10 15:20:04;;;;;;;3.58;1.67;;;;;;;26.70;31.03;96782.09;4997846;28;20054;-80
2022/08/10 15:22:32;;;;;;;5.55;1.80;;;;;;;26.71;30.00;96778.09;4996366;28;20035;-80
2022/08/10 15:25:05;;;;;;;4.20;1.80;;;;;;;26.66;28.09;96784.13;4985785;28;20049;-81
2022/08/10 15:27:35;;;;;;;3.65;1.63;;;;;;;26.54;28.48;96777.06;4995519;28;20035;-80
2022/08/10 15:30:03;;;;;;;2.95;1.75;;;;;;;26.57;29.55;96778.22;4995148;28;20057;-77
2022/08/10 15:38:14;;;;;;;3.53;1.80;;;;;;;26.35;31.00;96776.78;4996020;28;20132;-81
2022/08/10 15:40:48;;;;;;;4.53;1.48;;;;;;;26.40;30.11;96767.97;4997133;28;20050;-81
2022/08/10 15:43:24;;;;;;;2.80;1.50;;;;;;;26.41;30.38;96770.34;4995579;28;20050;-79
2022/08/10 15:45:57;;;;;;;3.72;1.92;;;;;;;26.40;29.72;96777.16;4996827;28;20053;-82
2022/08/10 15:48:26;;;;;;;3.83;2.10;;;;;;;26.44;30.65;96768.78;4995957;28;20050;-80
2022/08/10 15:51:00;;;;;;;4.55;2.13;;;;;;;26.34;30.93;96767.63;4997010;28;20089;-79
2022/08/10 15:53:34;;;;;;;3.13;1.77;;;;;;;26.25;29.42;96759.72;4994646;28;20054;-80
2022/08/10 15:56:07;;;;;;;2.92;1.58;;;;;;;26.22;29.76;96760.56;4999351;28;20046;-80
2022/08/10 15:58:37;;;;;;;2.85;1.50;;;;;;;26.29;30.49;96752.09;4999806;28;20129;-79
2022/08/10 16:01:07;;;;;;;6.50;2.35;;;;;;;26.34;32.31;96755.69;4996076;28;20070;-79
2022/08/10 16:03:45;;;;;;;3.53;1.60;;;;;;;26.19;31.01;96755.78;4998539;28;20057;-81
2022/08/10 16:06:24;;;;;;;6.25;1.88;;;;;;;25.97;29.92;96746.78;4999169;28;20564;-81
2022/08/10 16:08:58;;;;;;;3.50;1.70;;;;;;;25.90;29.19;96746.06;4999088;28;20050;-81
2022/08/10 16:11:33;;;;;;;3.22;1.73;;;;;;;25.88;29.31;96748.44;4996554;28;20536;-83
2022/08/10 16:14:02;;;;;;;5.85;1.73;;;;;;;25.86;29.71;96750.84;4999003;28;20056;-80
2022/08/10 16:16:34;;;;;;;3.30;2.00;;;;;;;25.86;28.97;96746.06;4995458;28;20107;-78